Time;durP1;ratioP1;P1;durP2;ratioP2;P2;SDS_P1;SDS_P2;PMS_P1;PMS_P2;Temp;Humidity;BMP_temperature;BMP_pressure;BME280_temperature;BME280_humidity;BME280_pressure;Samples;Min_cycle;Max_cycle;Signal;HPM_P1;HPM_P2
2021/11/24 00:00:25;;;;;;;25.72;12.93;;;;;;;2.24;79.88;101460.33;125265;1099;104041;-83
2021/11/24 00:03:14;;;;;;;24.77;12.73;;;;;;;2.26;79.78;101457.86;125145;1099;104008;-82
2021/11/24 00:05:46;;;;;;;24.37;12.43;;;;;;;2.27;80.24;101455.41;125176;1099;103935;-82
2021/11/24 00:08:17;;;;;;;25.55;12.80;;;;;;;2.29;80.21;101469.41;125257;1099;103938;-82
2021/11/24 00:10:49;;;;;;;24.40;12.20;;;;;;;2.32;79.92;101458.38;125203;1102;103951;-82
2021/11/24 00:13:22;;;;;;;23.03;11.70;;;;;;;2.34;80.54;101469.80;125259;1102;104222;-82
2021/11/24 00:15:54;;;;;;;22.67;12.53;;;;;;;2.35;79.45;101461.23;125271;1102;104015;-83
2021/11/24 00:18:26;;;;;;;24.73;11.97;;;;;;;2.38;80.27;101460.59;125267;1102;104216;-83
2021/11/24 00:20:57;;;;;;;24.57;13.13;;;;;;;2.41;79.83;101463.44;125215;1102;103974;-83
2021/11/24 00:23:29;;;;;;;25.97;11.60;;;;;;;2.44;79.25;101464.59;125285;1102;104124;-83
2021/11/24 00:26:02;;;;;;;23.93;11.63;;;;;;;2.48;79.74;101466.67;125269;1102;104101;-83
2021/11/24 00:28:34;;;;;;;24.83;12.17;;;;;;;2.50;80.15;101472.88;125235;1102;104070;-83
2021/11/24 00:31:07;;;;;;;23.43;11.53;;;;;;;2.55;80.14;101474.95;125248;1099;104362;-82
2021/11/24 00:33:39;;;;;;;26.00;12.50;;;;;;;2.55;79.70;101485.33;125252;1099;104003;-81
2021/11/24 00:36:11;;;;;;;23.90;11.77;;;;;;;2.60;79.78;101486.60;125294;1099;103918;-82
2021/11/24 00:38:43;;;;;;;25.87;12.63;;;;;;;2.64;80.15;101488.68;125236;1102;103970;-82
2021/11/24 00:41:15;;;;;;;25.80;12.67;;;;;;;2.66;79.66;101482.83;125197;1099;104118;-82
2021/11/24 00:43:47;;;;;;;24.07;12.33;;;;;;;2.68;80.08;101481.30;125241;1099;103929;-81
2021/11/24 00:46:19;;;;;;;25.47;12.70;;;;;;;2.68;80.14;101473.52;125220;1102;103954;-81
2021/11/24 00:48:52;;;;;;;25.92;12.98;;;;;;;2.67;79.54;101473.39;125202;1102;103955;-81
2021/11/24 00:51:24;;;;;;;25.77;13.30;;;;;;;2.65;80.05;101475.85;125238;1099;103979;-82
2021/11/24 00:53:58;;;;;;;27.33;14.37;;;;;;;2.64;79.86;101479.21;125234;1099;103938;-82
2021/11/24 00:56:30;;;;;;;26.97;13.83;;;;;;;2.62;79.84;101482.48;125238;1099;104018;-82
2021/11/24 00:59:03;;;;;;;27.70;13.83;;;;;;;2.61;80.24;101484.14;125210;1099;103920;-82
2021/11/24 01:01:35;;;;;;;24.63;13.60;;;;;;;2.62;80.06;101479.89;125182;1099;103915;-82
2021/11/24 01:04:10;;;;;;;25.77;13.47;;;;;;;2.62;80.15;101483.38;125237;1100;104067;-82
2021/11/24 01:06:41;;;;;;;27.13;13.40;;;;;;;2.65;79.86;101485.29;125287;1099;104153;-82
2021/11/24 01:09:13;;;;;;;26.90;13.70;;;;;;;2.69;79.52;101477.00;125188;1102;103916;-82
2021/11/24 01:11:45;;;;;;;26.13;13.10;;;;;;;2.74;79.81;101475.69;125168;1102;103964;-81
2021/11/24 01:14:17;;;;;;;24.67;13.10;;;;;;;2.81;79.83;101472.83;125220;1102;104028;-81
2021/11/24 01:16:52;;;;;;;24.83;12.50;;;;;;;2.85;79.66;101477.50;125296;1099;103916;-81
2021/11/24 01:19:32;;;;;;;27.10;13.73;;;;;;;2.87;80.02;101478.52;125241;1099;104050;-81
2021/11/24 01:22:05;;;;;;;26.00;13.10;;;;;;;2.93;80.03;101482.39;125097;1102;103998;-82
2021/11/24 01:24:37;;;;;;;26.35;12.60;;;;;;;2.96;79.87;101482.64;125240;1099;103944;-82
2021/11/24 01:27:09;;;;;;;25.60;13.33;;;;;;;2.97;79.68;101479.28;125239;1098;104033;-82
2021/11/24 01:29:41;;;;;;;24.67;12.20;;;;;;;2.98;79.94;101491.48;125250;1099;104066;-82
2021/11/24 01:32:13;;;;;;;24.13;11.87;;;;;;;2.97;79.26;101485.36;125298;1102;104105;-82
2021/11/24 01:34:45;;;;;;;27.67;12.90;;;;;;;2.95;79.75;101492.12;125291;1101;103951;-82
2021/11/24 01:37:19;;;;;;;23.00;11.43;;;;;;;2.94;80.01;101485.11;125364;1102;103932;-81
2021/11/24 01:39:51;;;;;;;23.67;11.97;;;;;;;2.93;79.87;101488.50;125286;1102;103952;-81
2021/11/24 01:42:26;;;;;;;22.77;11.00;;;;;;;2.90;79.67;101488.25;125236;1102;104066;-81
2021/11/24 01:44:59;;;;;;;22.67;11.63;;;;;;;2.84;79.69;101488.64;125292;1102;104175;-82
2021/11/24 01:47:35;;;;;;;26.57;12.10;;;;;;;2.84;79.96;101492.93;125257;1102;103960;-82
2021/11/24 01:50:15;;;;;;;24.67;12.27;;;;;;;2.79;79.31;101484.77;125262;1102;104080;-83
2021/11/24 01:52:48;;;;;;;23.83;10.87;;;;;;;2.78;79.75;101488.13;125253;1102;103986;-81
2021/11/24 01:55:20;;;;;;;25.53;12.23;;;;;;;2.74;80.04;101488.64;125324;1102;104079;-81
2021/11/24 01:57:54;;;;;;;22.60;11.10;;;;;;;2.72;79.71;101490.22;125327;1102;103973;-81
2021/11/24 02:00:28;;;;;;;19.92;10.50;;;;;;;2.73;79.88;101493.70;125310;1102;103973;-81
2021/11/24 02:03:02;;;;;;;22.40;10.83;;;;;;;2.75;79.48;101494.76;125247;1102;103922;-82
2021/11/24 02:05:34;;;;;;;22.40;10.55;;;;;;;2.78;79.33;101489.83;125239;1099;104031;-82
2021/11/24 02:08:07;;;;;;;22.57;10.50;;;;;;;2.80;79.32;101496.03;125263;1102;103963;-82
2021/11/24 02:10:41;;;;;;;24.20;11.07;;;;;;;2.82;79.49;101504.84;125225;1102;104069;-82
2021/11/24 02:13:15;;;;;;;21.07;10.30;;;;;;;2.84;79.92;101501.60;125183;1100;103909;-82
2021/11/24 02:15:47;;;;;;;22.63;10.70;;;;;;;2.84;80.05;101501.60;125244;1099;103929;-82
2021/11/24 02:18:19;;;;;;;23.20;11.10;;;;;;;2.84;79.01;101496.42;125242;1100;103928;-82
2021/11/24 02:20:51;;;;;;;24.03;10.63;;;;;;;2.81;79.55;101500.45;125345;1099;103928;-81
2021/11/24 02:23:23;;;;;;;22.50;10.70;;;;;;;2.77;79.50;101496.67;125938;1099;104015;-81
2021/11/24 02:25:54;;;;;;;22.13;10.90;;;;;;;2.73;79.44;101498.89;125242;1099;104031;-82
2021/11/24 02:28:26;;;;;;;25.77;12.00;;;;;;;2.70;79.48;101502.16;125205;1099;103915;-82
2021/11/24 02:30:58;;;;;;;22.93;12.00;;;;;;;2.69;79.70;101508.10;125244;1099;103974;-82
2021/11/24 02:33:30;;;;;;;24.00;11.67;;;;;;;2.67;79.14;101510.56;125618;1099;103926;-82
2021/11/24 02:36:02;;;;;;;25.20;12.20;;;;;;;2.67;79.35;101513.16;125287;1102;103983;-82
2021/11/24 02:38:34;;;;;;;22.00;10.63;;;;;;;2.69;79.57;101515.88;125256;1102;104094;-82
2021/11/24 02:41:05;;;;;;;23.10;11.40;;;;;;;2.70;79.05;101521.19;125327;1102;104121;-81
2021/11/24 02:43:37;;;;;;;24.47;11.80;;;;;;;2.70;79.65;101526.38;125202;1102;104344;-81
2021/11/24 02:46:09;;;;;;;24.53;11.87;;;;;;;2.73;79.66;101523.14;125301;1102;103920;-82
2021/11/24 02:48:42;;;;;;;24.13;12.17;;;;;;;2.74;79.62;101532.71;125304;1102;104111;-82
2021/11/24 02:51:13;;;;;;;23.85;11.60;;;;;;;2.74;79.71;101532.71;125302;1103;103977;-82
2021/11/24 02:53:45;;;;;;;24.17;11.40;;;;;;;2.74;79.14;101527.52;125231;1102;104079;-82
2021/11/24 02:56:19;;;;;;;24.57;12.30;;;;;;;2.73;79.17;101528.33;125280;1102;103971;-82
2021/11/24 02:58:53;;;;;;;23.03;11.70;;;;;;;2.77;79.28;101538.15;125342;1101;104086;-82
2021/11/24 03:01:26;;;;;;;21.47;11.00;;;;;;;2.78;79.41;101537.38;125284;1101;104289;-82
2021/11/24 03:03:57;;;;;;;21.55;11.10;;;;;;;2.81;79.53;101542.83;125228;1102;104057;-82
2021/11/24 03:06:29;;;;;;;22.73;11.40;;;;;;;2.85;79.20;101541.38;125290;1102;104079;-81
2021/11/24 03:09:01;;;;;;;24.20;11.27;;;;;;;2.91;78.82;101547.08;125399;1099;104416;-82
2021/11/24 03:11:33;;;;;;;21.57;10.63;;;;;;;2.98;79.08;101543.33;126340;1099;103919;-81
2021/11/24 03:14:05;;;;;;;24.00;10.73;;;;;;;3.05;79.07;101545.63;126025;1099;104025;-82
2021/11/24 03:16:37;;;;;;;21.13;10.17;;;;;;;3.10;78.92;101549.53;125250;1100;103788;-81
2021/11/24 03:19:09;;;;;;;23.13;10.60;;;;;;;3.11;79.27;101545.24;125185;1099;103932;-82
2021/11/24 03:21:41;;;;;;;20.63;9.37;;;;;;;3.08;79.52;101544.98;125161;1099;103958;-82
2021/11/24 03:24:13;;;;;;;22.50;9.83;;;;;;;3.02;79.30;101542.78;125619;1099;104005;-81
2021/11/24 03:26:45;;;;;;;22.10;10.40;;;;;;;2.97;78.89;101542.41;125408;1099;104060;-82
2021/11/24 03:29:17;;;;;;;22.23;10.07;;;;;;;2.91;78.75;101546.19;125329;1099;103986;-82
2021/11/24 03:31:50;;;;;;;22.57;10.50;;;;;;;2.87;79.16;101553.70;126351;1099;103919;-83
2021/11/24 03:34:21;;;;;;;21.40;9.77;;;;;;;2.85;78.66;101552.69;126092;1099;103919;-83
2021/11/24 03:36:53;;;;;;;23.07;9.50;;;;;;;2.81;79.06;101555.78;125629;1099;104477;-81
2021/11/24 03:39:25;;;;;;;19.73;9.60;;;;;;;2.79;79.25;101559.95;125256;1102;104043;-82
2021/11/24 03:41:57;;;;;;;21.07;9.90;;;;;;;2.80;79.33;101555.66;125517;1099;103922;-81
2021/11/24 03:44:28;;;;;;;23.63;10.70;;;;;;;2.80;79.40;101561.73;125294;1099;103970;-82
2021/11/24 03:47:03;;;;;;;20.30;9.37;;;;;;;2.83;78.58;101568.87;126348;1099;104382;-82
2021/11/24 03:49:35;;;;;;;21.23;9.33;;;;;;;2.81;79.21;101566.16;125433;1098;103922;-81
2021/11/24 03:52:08;;;;;;;20.33;9.07;;;;;;;2.81;78.86;101562.66;125226;1102;104045;-82
2021/11/24 03:54:40;;;;;;;22.60;9.77;;;;;;;2.80;79.19;101563.44;126139;1099;103926;-81
2021/11/24 03:57:12;;;;;;;21.93;9.40;;;;;;;2.81;79.40;101576.52;125597;1099;103919;-83
2021/11/24 03:59:43;;;;;;;20.10;8.73;;;;;;;2.84;79.06;101570.70;125537;1099;103941;-82
2021/11/24 04:02:15;;;;;;;21.23;9.00;;;;;;;2.85;79.20;101583.79;125290;1100;103945;-81
2021/11/24 04:04:47;;;;;;;20.33;8.90;;;;;;;2.87;79.04;101582.22;125567;1099;103915;-82
2021/11/24 04:07:19;;;;;;;19.20;9.23;;;;;;;2.90;79.20;101585.84;126252;1099;103759;-81
2021/11/24 04:09:50;;;;;;;19.40;8.60;;;;;;;2.94;78.65;101587.92;125296;1099;103945;-81
2021/11/24 04:12:22;;;;;;;18.73;9.23;;;;;;;2.96;79.27;101587.28;125280;1099;104046;-82
2021/11/24 04:14:54;;;;;;;20.90;9.70;;;;;;;2.99;78.60;101592.73;126244;1099;103918;-82
2021/11/24 04:17:26;;;;;;;21.10;9.53;;;;;;;3.03;79.19;101591.28;125560;1099;104066;-81
2021/11/24 04:19:58;;;;;;;19.57;8.73;;;;;;;3.04;79.39;101598.30;125319;1102;104040;-82
2021/11/24 04:22:29;;;;;;;17.60;8.77;;;;;;;3.05;78.60;101594.91;125521;1099;103929;-82
2021/11/24 04:25:02;;;;;;;19.53;9.20;;;;;;;3.04;78.99;101591.41;125210;1102;103929;-82
2021/11/24 04:27:34;;;;;;;19.80;8.97;;;;;;;3.04;78.30;101596.60;125317;1102;103993;-82
2021/11/24 04:30:08;;;;;;;23.17;8.70;;;;;;;3.04;78.97;101595.70;125308;1102;104117;-82
2021/11/24 04:32:40;;;;;;;19.30;8.97;;;;;;;3.03;78.23;101593.88;125320;1102;104038;-83
2021/11/24 04:35:12;;;;;;;19.57;9.17;;;;;;;2.99;78.40;101595.32;125304;1102;104056;-81
2021/11/24 04:37:44;;;;;;;18.43;8.10;;;;;;;2.98;78.93;101605.56;125248;1102;103919;-82
2021/11/24 04:40:16;;;;;;;19.07;8.43;;;;;;;2.96;78.31;101607.09;125335;1102;104280;-81
2021/11/24 04:42:51;;;;;;;17.55;8.50;;;;;;;2.94;78.27;101604.38;125282;1102;104134;-82
2021/11/24 04:45:23;;;;;;;21.17;8.87;;;;;;;2.93;78.89;101601.66;125209;1102;103922;-81
2021/11/24 04:47:57;;;;;;;18.07;8.50;;;;;;;2.94;78.32;101604.38;125324;1102;104358;-81
2021/11/24 04:50:33;;;;;;;17.90;8.50;;;;;;;2.96;79.02;101592.47;125257;1102;103961;-82
2021/11/24 04:53:06;;;;;;;18.07;8.60;;;;;;;3.02;78.64;101599.83;125248;1102;104565;-82
2021/11/24 04:55:38;;;;;;;18.73;8.87;;;;;;;3.02;78.42;101607.61;125171;1102;104162;-83
2021/11/24 04:58:10;;;;;;;19.33;9.20;;;;;;;3.03;78.53;101604.25;125204;1099;104070;-82
2021/11/24 05:00:42;;;;;;;19.53;9.10;;;;;;;3.04;78.93;101612.16;125245;1102;104015;-82
2021/11/24 05:03:14;;;;;;;19.37;9.20;;;;;;;3.05;78.58;101618.24;125139;1099;103947;-82
2021/11/24 05:05:46;;;;;;;19.67;9.23;;;;;;;3.04;78.26;101627.72;125176;1099;104000;-82
2021/11/24 05:08:18;;;;;;;19.93;9.37;;;;;;;3.07;78.40;101632.27;126252;1099;103942;-82
2021/11/24 05:10:50;;;;;;;19.90;9.33;;;;;;;3.12;78.74;101625.77;126174;1099;104053;-82
2021/11/24 05:13:22;;;;;;;20.57;9.47;;;;;;;3.17;78.51;101633.94;126354;1099;103954;-82
2021/11/24 05:15:58;;;;;;;21.57;9.30;;;;;;;3.20;78.52;101637.69;126296;1098;103948;-82
2021/11/24 05:18:34;;;;;;;18.80;9.23;;;;;;;3.22;78.36;101640.41;125231;1099;104022;-81
2021/11/24 05:21:11;;;;;;;20.10;8.93;;;;;;;3.20;78.45;101639.38;125208;1099;103977;-81
2021/11/24 05:23:44;;;;;;;19.77;8.90;;;;;;;3.18;77.85;101640.91;125359;1099;103945;-82
2021/11/24 05:26:15;;;;;;;19.43;9.03;;;;;;;3.12;78.26;101649.11;125445;1099;103919;-82
2021/11/24 05:28:47;;;;;;;21.87;9.67;;;;;;;3.07;77.79;101650.42;126181;1099;112132;-82
2021/11/24 05:31:20;;;;;;;21.53;11.33;;;;;;;3.07;78.51;101655.61;126173;1098;103980;-81
2021/11/24 05:33:56;;;;;;;33.13;16.13;;;;;;;3.08;77.81;101656.50;126306;1099;104570;-82
2021/11/24 05:36:27;;;;;;;27.90;12.73;;;;;;;3.09;78.23;101660.92;125369;1099;103960;-81
2021/11/24 05:38:59;;;;;;;22.83;10.17;;;;;;;3.11;77.96;101654.17;125394;1099;103941;-82
2021/11/24 05:41:37;;;;;;;23.10;10.40;;;;;;;3.09;78.42;101651.45;125150;1102;104012;-81
2021/11/24 05:44:20;;;;;;;20.97;10.17;;;;;;;3.07;78.37;101658.20;125315;1099;103931;-83
2021/11/24 05:46:56;;;;;;;21.33;10.47;;;;;;;3.07;78.29;101663.39;125399;1099;104139;-83
2021/11/24 05:49:32;;;;;;;22.53;10.40;;;;;;;3.08;77.63;101672.96;126112;1099;107404;-82
2021/11/24 05:52:07;;;;;;;21.63;9.77;;;;;;;3.10;77.88;101679.20;126049;1099;103791;-83
2021/11/24 05:54:38;;;;;;;22.87;10.60;;;;;;;3.11;78.38;101674.92;126223;1099;103992;-83
2021/11/24 05:57:11;;;;;;;21.53;10.07;;;;;;;3.11;78.06;101673.22;126142;1099;103929;-82
2021/11/24 05:59:45;;;;;;;22.23;9.80;;;;;;;3.11;78.01;101672.33;125232;1099;118780;-83
2021/11/24 06:02:17;;;;;;;27.03;10.00;;;;;;;3.12;77.75;101679.34;125263;1099;104040;-83
2021/11/24 06:04:51;;;;;;;24.40;10.77;;;;;;;3.11;78.06;101685.29;125205;1099;103987;-83
2021/11/24 06:07:24;;;;;;;23.37;10.57;;;;;;;3.18;77.88;101690.20;125107;1102;104031;-83
2021/11/24 06:09:55;;;;;;;26.83;10.77;;;;;;;3.20;77.75;101683.48;125152;1099;103947;-83
2021/11/24 06:12:27;;;;;;;28.07;11.33;;;;;;;3.24;77.64;101690.72;125341;1099;104193;-82
2021/11/24 06:14:59;;;;;;;23.93;11.23;;;;;;;3.26;77.68;101690.84;126044;1099;103951;-83
2021/11/24 06:17:33;;;;;;;28.37;11.40;;;;;;;3.27;77.66;101688.38;125261;1099;104083;-83
2021/11/24 06:20:09;;;;;;;21.43;10.47;;;;;;;3.32;77.66;101696.55;125200;1099;110442;-82
2021/11/24 06:22:41;;;;;;;24.57;11.27;;;;;;;3.34;77.01;101700.20;125184;1102;104340;-82
2021/11/24 06:25:15;;;;;;;24.33;11.37;;;;;;;3.37;78.23;101703.05;125135;1100;104054;-82
2021/11/24 06:27:49;;;;;;;25.48;11.68;;;;;;;3.40;77.57;101705.91;125121;1102;103980;-80
2021/11/24 06:30:24;;;;;;;30.33;12.27;;;;;;;3.41;77.30;101697.32;125201;1099;102774;-82
2021/11/24 06:32:57;;;;;;;31.20;12.63;;;;;;;3.42;76.88;101706.93;125090;1099;104069;-81
2021/11/24 06:35:29;;;;;;;27.23;13.40;;;;;;;3.43;77.09;101695.78;126007;1099;104006;-81
2021/11/24 06:38:08;;;;;;;27.37;12.30;;;;;;;3.51;77.49;101704.21;125253;1099;103986;-83
2021/11/24 06:40:45;;;;;;;26.43;13.27;;;;;;;3.57;77.15;101697.83;125072;1100;107836;-83
2021/11/24 06:43:27;;;;;;;23.00;11.35;;;;;;;3.58;77.04;101704.84;125070;1100;104079;-85
2021/11/24 06:46:06;;;;;;;29.90;13.37;;;;;;;3.58;77.45;101701.33;125022;1102;103961;-84
2021/11/24 06:48:42;;;;;;;28.17;12.80;;;;;;;3.59;77.53;101704.05;125164;1102;103971;-85
2021/11/24 06:51:20;;;;;;;24.60;11.60;;;;;;;3.61;77.55;101711.95;125093;1099;104118;-82
2021/11/24 06:53:56;;;;;;;29.00;11.53;;;;;;;3.61;77.34;101709.36;125196;1099;104015;-82
2021/11/24 06:56:30;;;;;;;27.33;11.77;;;;;;;3.62;77.33;101711.19;126035;1099;103971;-84
2021/11/24 06:59:06;;;;;;;26.23;12.47;;;;;;;3.63;76.78;101713.02;125396;1099;103928;-84
2021/11/24 07:01:45;;;;;;;26.83;11.93;;;;;;;3.70;77.75;101720.52;125457;1099;103925;-83
2021/11/24 07:04:19;;;;;;;30.60;13.10;;;;;;;3.79;77.38;101712.59;125372;1099;104053;-82
2021/11/24 07:06:56;;;;;;;27.53;12.43;;;;;;;3.87;76.89;101716.71;125374;1099;103954;-82
2021/11/24 07:09:30;;;;;;;28.03;11.60;;;;;;;3.93;76.72;101717.22;125597;1099;103965;-83
2021/11/24 07:12:04;;;;;;;25.15;11.68;;;;;;;4.02;77.43;101718.73;125290;1099;103955;-85
2021/11/24 07:14:39;;;;;;;28.03;12.23;;;;;;;4.17;76.95;101721.69;126010;1099;103941;-82
2021/11/24 07:17:22;;;;;;;22.07;11.40;;;;;;;4.28;76.94;101726.95;125102;1102;104137;-83
2021/11/24 07:20:05;;;;;;;29.27;11.43;;;;;;;4.47;77.16;101728.42;125129;1102;104073;-85
2021/11/24 07:22:43;;;;;;;25.83;12.47;;;;;;;4.69;77.08;101733.66;125176;1102;103919;-84
2021/11/24 07:25:20;;;;;;;25.00;11.07;;;;;;;4.82;77.10;101727.73;125257;1102;104285;-84
2021/11/24 07:27:53;;;;;;;22.00;10.40;;;;;;;4.82;76.82;101739.03;125249;1102;103941;-81
2021/11/24 07:30:38;;;;;;;20.43;9.90;;;;;;;4.83;76.92;101735.65;125175;1102;104475;-84
2021/11/24 07:33:12;;;;;;;23.93;9.73;;;;;;;4.88;76.38;101735.08;125024;1102;103993;-84
2021/11/24 07:35:56;;;;;;;20.27;9.80;;;;;;;4.92;76.16;101732.84;125076;1102;103983;-84
2021/11/24 07:38:32;;;;;;;22.03;9.50;;;;;;;5.05;76.53;101734.73;125118;1102;103923;-79
2021/11/24 07:41:07;;;;;;;22.17;9.17;;;;;;;5.14;75.00;101726.70;125053;1102;103964;-81
2021/11/24 07:43:40;;;;;;;19.73;7.90;;;;;;;5.20;75.50;101727.17;125132;1102;102967;-79
2021/11/24 07:46:14;;;;;;;19.60;7.83;;;;;;;5.19;74.98;101730.59;125108;1102;103853;-79
2021/11/24 07:48:48;;;;;;;17.97;7.90;;;;;;;5.21;75.01;101727.30;125147;1102;103950;-81
2021/11/24 07:51:27;;;;;;;20.13;8.47;;;;;;;5.26;75.17;101727.65;125207;1102;105504;-81
2021/11/24 07:54:10;;;;;;;21.73;10.07;;;;;;;5.32;75.42;101728.13;125249;1102;103996;-83
2021/11/24 07:56:46;;;;;;;24.97;10.60;;;;;;;5.38;75.15;101728.59;125213;1102;104416;-86
2021/11/24 07:59:24;;;;;;;23.37;9.77;;;;;;;5.45;75.09;101723.85;125159;1102;103977;-84
2021/11/24 08:02:05;;;;;;;22.90;8.57;;;;;;;5.42;74.38;101711.50;124926;1105;101664;-86
2021/11/24 08:04:41;;;;;;;21.30;7.57;;;;;;;5.40;74.28;101719.19;125164;1102;105708;-86
2021/11/24 08:07:17;;;;;;;19.67;7.17;;;;;;;5.36;73.65;101717.17;125057;1102;104696;-85
2021/11/24 08:09:58;;;;;;;22.80;7.50;;;;;;;5.38;73.45;101723.38;125163;1102;102413;-85
2021/11/24 08:12:42;;;;;;;19.43;6.67;;;;;;;5.41;73.24;101725.33;124980;1102;108182;-83
2021/11/24 08:15:16;;;;;;;17.57;6.13;;;;;;;5.45;72.36;101718.64;125026;1102;103980;-83
2021/11/24 08:18:03;;;;;;;19.27;5.50;;;;;;;5.52;72.81;101711.41;125117;1103;104038;-84
2021/11/24 08:20:46;;;;;;;18.20;6.13;;;;;;;5.66;73.12;101715.06;125308;1100;104029;-85
2021/11/24 08:23:26;;;;;;;16.27;6.23;;;;;;;5.76;72.14;101716.64;125270;1101;104246;-85
2021/11/24 08:26:05;;;;;;;15.77;5.73;;;;;;;5.82;72.42;101716.20;125250;1102;104082;-83
2021/11/24 08:28:43;;;;;;;16.23;5.27;;;;;;;5.90;71.92;101715.06;125338;1102;104476;-85
2021/11/24 08:31:26;;;;;;;14.77;5.63;;;;;;;5.95;71.25;101724.11;126199;1099;103919;-86
2021/11/24 08:34:07;;;;;;;18.25;5.62;;;;;;;6.02;71.99;101717.72;125426;1099;104028;-84
2021/11/24 08:36:42;;;;;;;11.83;5.00;;;;;;;6.09;71.49;101717.34;126164;1099;104044;-83
2021/11/24 08:39:37;;;;;;;14.33;4.43;;;;;;;6.18;72.01;101711.91;125226;1102;104015;-83
2021/11/24 08:42:19;;;;;;;10.37;4.17;;;;;;;6.25;70.80;101714.19;125333;1099;104021;-84
2021/11/24 08:44:57;;;;;;;12.80;4.43;;;;;;;6.28;70.64;101717.02;126184;1099;103925;-83
2021/11/24 08:47:35;;;;;;;9.37;3.93;;;;;;;6.26;70.00;101706.48;125298;1099;104003;-82
2021/11/24 08:50:15;;;;;;;6.90;3.60;;;;;;;6.09;70.91;101702.64;126209;1099;104125;-82
2021/11/24 08:52:50;;;;;;;8.47;3.77;;;;;;;6.01;70.22;101697.66;126026;1099;103970;-83
2021/11/24 08:55:26;;;;;;;7.23;3.60;;;;;;;6.05;69.83;101699.70;126109;1099;103968;-84
2021/11/24 08:58:06;;;;;;;13.73;3.90;;;;;;;6.01;70.53;101702.86;125150;1099;103928;-83
2021/11/24 09:00:46;;;;;;;9.07;3.80;;;;;;;6.23;70.47;101698.44;125249;1102;104059;-83
2021/11/24 09:03:25;;;;;;;8.73;3.90;;;;;;;6.46;70.39;101699.16;126053;1099;104063;-85
2021/11/24 09:09:43;;;;;;;8.87;3.20;;;;;;;6.90;64.70;101695.27;125070;1101;104086;-83
2021/11/24 09:12:42;;;;;;;3.90;2.00;;;;;;;6.84;66.47;101695.77;125002;1105;103781;-83
2021/11/24 09:15:30;;;;;;;4.23;1.80;;;;;;;6.63;62.21;101702.97;124992;1105;104044;-82
2021/11/24 09:18:22;;;;;;;5.00;1.77;;;;;;;6.56;63.93;101704.25;124986;1105;104224;-81
2021/11/24 09:21:10;;;;;;;4.93;1.53;;;;;;;6.53;65.64;101695.28;124868;1105;103958;-82
2021/11/24 09:23:51;;;;;;;5.10;2.30;;;;;;;6.42;63.12;101705.88;124941;1105;104050;-84
2021/11/24 09:26:55;;;;;;;4.60;2.20;;;;;;;6.34;56.51;101708.70;125047;1106;103932;-83
2021/11/24 09:29:47;;;;;;;1.70;1.20;;;;;;;6.26;58.64;101706.48;125053;1105;103948;-83
2021/11/24 09:32:22;;;;;;;4.97;1.97;;;;;;;6.29;62.03;101708.37;125031;1102;104153;-79
2021/11/24 09:35:01;;;;;;;6.23;2.00;;;;;;;6.36;63.23;101708.03;125193;1102;104111;-81
2021/11/24 09:37:37;;;;;;;7.60;2.83;;;;;;;6.48;63.83;101703.70;125328;1102;103939;-83
2021/11/24 09:40:19;;;;;;;6.33;2.57;;;;;;;6.59;62.42;101707.08;125245;1102;104229;-83
2021/11/24 09:43:01;;;;;;;7.83;2.97;;;;;;;6.76;62.42;101697.84;125224;1102;104009;-82
2021/11/24 09:45:38;;;;;;;6.07;2.57;;;;;;;6.95;58.64;101691.27;125334;1102;104022;-80
2021/11/24 09:48:20;;;;;;;4.87;2.23;;;;;;;7.13;61.64;101695.14;125324;1103;104050;-83
2021/11/24 09:51:07;;;;;;;6.93;2.73;;;;;;;7.15;59.88;101695.25;126212;1099;103945;-81
2021/11/24 09:53:51;;;;;;;7.03;2.50;;;;;;;7.26;62.15;101695.98;125378;1102;104034;-81
2021/11/24 09:56:41;;;;;;;;;;;;;;;;;;;;;
2021/11/24 09:59:21;;;;;;;9.37;3.47;;;;;;;7.53;60.47;101694.34;125287;1102;104159;-86
2021/11/24 10:02:10;;;;;;;7.60;2.80;;;;;;;7.62;59.99;101700.19;125210;1102;103973;-83
2021/11/24 10:04:52;;;;;;;6.10;2.50;;;;;;;7.79;60.90;101689.94;125212;1102;105425;-83
2021/11/24 10:07:31;;;;;;;6.47;2.70;;;;;;;7.86;60.99;101679.09;125271;1102;103939;-82
2021/11/24 10:10:15;;;;;;;6.60;2.50;;;;;;;7.91;59.97;101683.80;125144;1102;104419;-80
2021/11/24 10:12:51;;;;;;;4.17;2.10;;;;;;;8.15;61.61;101678.38;125194;1102;103965;-83
2021/11/24 10:15:43;;;;;;;7.97;2.50;;;;;;;8.20;61.57;101679.56;125231;1102;107003;-82
2021/11/24 10:18:30;;;;;;;6.30;2.70;;;;;;;8.14;62.20;101673.94;125251;1102;101899;-81
2021/11/24 10:21:11;;;;;;;4.03;2.40;;;;;;;8.03;60.55;101678.48;125175;1102;103997;-81
2021/11/24 10:23:52;;;;;;;8.63;2.43;;;;;;;7.97;61.52;101683.30;125120;1102;102371;-82
2021/11/24 10:26:31;;;;;;;7.03;2.43;;;;;;;7.89;60.58;101677.58;125097;1102;102480;-82
2021/11/24 10:29:27;;;;;;;4.57;2.40;;;;;;;7.80;59.86;101679.59;125090;1102;104261;-79
2021/11/24 10:32:29;;;;;;;7.70;2.67;;;;;;;7.64;59.35;101682.01;125153;1102;104031;-82
2021/11/24 10:35:14;;;;;;;5.70;2.50;;;;;;;7.57;60.17;101680.67;125065;1102;103983;-81
2021/11/24 10:38:12;;;;;;;7.55;3.00;;;;;;;7.56;59.90;101681.50;125128;1102;104248;-80
2021/11/24 10:40:49;;;;;;;9.17;3.10;;;;;;;7.66;60.35;101675.17;125150;1102;103347;-80
2021/11/24 10:43:30;;;;;;;7.80;2.30;;;;;;;7.62;59.31;101676.68;125160;1102;104753;-82
2021/11/24 10:46:17;;;;;;;4.90;2.23;;;;;;;7.49;58.28;101676.66;125058;1102;102720;-80
2021/11/24 10:49:07;;;;;;;6.17;2.33;;;;;;;7.36;59.31;101674.94;124970;1105;104134;-79
2021/11/24 10:51:48;;;;;;;4.80;2.43;;;;;;;7.34;58.21;101674.83;124934;1104;105434;-80
2021/11/24 10:54:25;;;;;;;7.93;2.97;;;;;;;7.37;58.22;101677.64;124789;1106;104220;-81
2021/11/24 10:57:09;;;;;;;5.63;2.20;;;;;;;7.39;59.06;101669.92;124767;1105;104294;-80
2021/11/24 10:59:46;;;;;;;4.20;2.30;;;;;;;7.47;59.24;101666.10;124894;1105;103964;-82
2021/11/24 11:02:26;;;;;;;8.30;2.63;;;;;;;7.55;60.26;101667.51;124890;1105;104160;-80
2021/11/24 11:05:08;;;;;;;4.33;2.67;;;;;;;7.56;59.52;101663.21;125206;1102;104148;-80
2021/11/24 11:07:56;;;;;;;4.43;2.53;;;;;;;7.54;59.36;101659.57;125101;1102;104006;-81
2021/11/24 11:10:34;;;;;;;9.80;2.90;;;;;;;7.61;59.28;101653.07;125171;1102;103957;-82
2021/11/24 11:13:12;;;;;;;5.43;2.60;;;;;;;7.65;59.75;101657.67;125223;1102;102022;-83
2021/11/24 11:15:55;;;;;;;4.90;2.23;;;;;;;7.69;59.44;101654.47;124906;1102;104194;-82
2021/11/24 11:18:39;;;;;;;2.63;1.63;;;;;;;7.54;57.42;101638.67;125079;1102;104025;-84
2021/11/24 11:21:31;;;;;;;2.77;1.73;;;;;;;7.48;57.98;101649.64;125180;1102;103957;-80
2021/11/24 11:24:21;;;;;;;3.47;1.80;;;;;;;7.42;58.61;101645.69;124881;1102;104002;-81
2021/11/24 11:27:27;;;;;;;;;;;;;;;;;;;;;
2021/11/24 11:30:12;;;;;;;5.17;2.00;;;;;;;7.49;58.02;101640.09;124593;1106;104140;-83
2021/11/24 11:33:02;;;;;;;3.37;1.90;;;;;;;7.41;57.01;101634.35;124649;1108;104110;-84
2021/11/24 11:35:40;;;;;;;5.70;2.20;;;;;;;7.37;56.90;101640.20;124765;1105;104015;-82
2021/11/24 11:38:20;;;;;;;3.90;2.30;;;;;;;7.38;57.42;101641.98;124998;1105;104169;-82
2021/11/24 11:40:58;;;;;;;6.17;2.10;;;;;;;7.44;56.82;101638.89;124941;1105;104034;-83
2021/11/24 11:43:54;;;;;;;6.10;2.23;;;;;;;7.42;56.26;101633.56;124733;1105;104236;-85
2021/11/24 11:46:37;;;;;;;6.90;2.83;;;;;;;7.32;56.28;101632.05;124945;1105;104034;-83
2021/11/24 11:49:29;;;;;;;5.20;2.63;;;;;;;7.35;57.28;101637.48;124872;1105;103980;-82
2021/11/24 11:52:25;;;;;;;7.97;2.90;;;;;;;7.37;56.80;101625.42;125186;1102;103957;-85
2021/11/24 11:55:23;;;;;;;5.20;2.10;;;;;;;7.33;56.13;101631.23;125147;1102;102715;-81